createdAt,value
2023-03-07T00:00:52.741Z,97791.56
2023-03-07T00:03:21.744Z,97790.19
2023-03-07T00:05:49.948Z,97786.03
2023-03-07T00:08:31.137Z,97780.69
2023-03-07T00:11:03.165Z,97782.53
2023-03-07T00:13:34.164Z,97786.00
2023-03-07T00:16:03.773Z,97780.56
2023-03-07T00:18:32.450Z,97782.28
2023-03-07T00:21:01.399Z,97778.13
2023-03-07T00:23:29.674Z,97774.78
2023-03-07T00:25:59.849Z,97768.19
2023-03-07T00:28:28.093Z,97761.25
2023-03-07T00:31:01.567Z,97757.00
2023-03-07T00:33:29.553Z,97755.50
2023-03-07T00:35:58.738Z,97742.13
2023-03-07T00:38:27.204Z,97755.34
2023-03-07T00:40:59.756Z,97745.09
2023-03-07T00:43:28.184Z,97744.09
2023-03-07T00:45:57.889Z,97739.91
2023-03-07T00:48:28.698Z,97737.75
2023-03-07T00:50:57.202Z,97742.84
2023-03-07T00:53:26.076Z,97738.56
2023-03-07T00:55:58.953Z,97736.00
2023-03-07T00:58:28.518Z,97738.44
2023-03-07T01:00:58.455Z,97729.94
2023-03-07T01:03:27.224Z,97725.03
2023-03-07T01:05:58.410Z,97730.19
2023-03-07T01:08:29.294Z,97731.72
2023-03-07T01:10:59.959Z,97724.97
2023-03-07T01:13:29.847Z,97728.88
2023-03-07T01:16:08.502Z,97729.69
2023-03-07T01:18:36.834Z,97721.03
2023-03-07T01:21:13.051Z,97723.94
2023-03-07T01:23:41.399Z,97732.63
2023-03-07T01:26:13.640Z,97721.69
2023-03-07T01:28:41.679Z,97719.38
2023-03-07T01:31:11.552Z,97719.53
2023-03-07T01:33:39.833Z,97715.41
2023-03-07T01:36:17.416Z,97717.28
2023-03-07T01:38:45.722Z,97713.38
2023-03-07T01:41:13.836Z,97714.56
2023-03-07T01:43:42.195Z,97710.66
2023-03-07T01:46:45.342Z,97717.91
2023-03-07T01:49:18.417Z,97710.03
2023-03-07T01:51:49.283Z,97704.09
2023-03-07T01:54:19.370Z,97699.34
2023-03-07T01:56:48.599Z,97691.88
2023-03-07T01:59:20.474Z,97685.53
2023-03-07T02:01:50.371Z,97677.91
2023-03-07T02:04:21.019Z,97672.19
2023-03-07T02:06:49.421Z,97673.53
2023-03-07T02:09:20.395Z,97670.31
2023-03-07T02:11:49.003Z,97659.00
2023-03-07T02:14:17.539Z,97660.31
2023-03-07T02:16:46.035Z,97652.00
2023-03-07T02:19:26.712Z,97654.81
2023-03-07T02:22:01.893Z,97651.59
2023-03-07T02:24:33.757Z,97653.91
2023-03-07T02:27:02.671Z,97641.06
2023-03-07T02:29:34.563Z,97636.38
2023-03-07T02:32:02.306Z,97632.53
2023-03-07T02:34:31.469Z,97627.78
2023-03-07T02:37:04.902Z,97604.59
2023-03-07T02:39:32.707Z,97622.75
2023-03-07T02:42:03.766Z,97621.09
2023-03-07T02:44:31.487Z,97616.81
2023-03-07T02:46:59.105Z,97620.72
2023-03-07T02:49:26.663Z,97623.03
2023-03-07T02:51:57.654Z,97613.41
2023-03-07T02:54:26.086Z,97604.94
2023-03-07T02:56:54.053Z,97617.78
2023-03-07T02:59:23.103Z,97618.06
2023-03-07T03:01:50.678Z,97605.63
2023-03-07T03:04:18.517Z,97607.31
2023-03-07T03:06:46.167Z,97601.50
2023-03-07T03:09:13.744Z,97602.41
2023-03-07T03:11:41.321Z,97602.72
2023-03-07T03:14:09.007Z,97589.16
2023-03-07T03:16:39.627Z,97590.78
2023-03-07T03:19:07.542Z,97609.69
2023-03-07T03:21:35.540Z,97598.72
2023-03-07T03:24:05.979Z,97595.31
2023-03-07T03:26:33.799Z,97592.13
2023-03-07T03:29:01.559Z,97584.69
2023-03-07T03:31:30.352Z,97584.34
2023-03-07T03:36:40.783Z,97565.91
2023-03-07T03:39:10.942Z,97573.19
2023-03-07T03:41:38.804Z,97571.50
2023-03-07T03:44:06.585Z,97565.22
2023-03-07T03:46:34.190Z,97570.78
2023-03-07T03:49:01.859Z,97570.47
2023-03-07T03:51:29.446Z,97568.91
2023-03-07T03:53:58.750Z,97571.63
2023-03-07T03:56:27.282Z,97563.88
2023-03-07T03:58:56.304Z,97568.91
2023-03-07T04:01:25.842Z,97555.94
2023-03-07T04:03:54.432Z,97556.66
2023-03-07T04:06:24.024Z,97550.25
2023-03-07T04:08:52.266Z,97557.88
2023-03-07T04:11:21.512Z,97553.69
2023-03-07T04:13:49.221Z,97561.25
2023-03-07T04:16:17.347Z,97555.53
2023-03-07T04:18:44.918Z,97556.91
2023-03-07T04:21:13.750Z,97552.00
2023-03-07T04:23:41.375Z,97549.09
2023-03-07T04:26:11.357Z,97552.25
2023-03-07T04:28:45.677Z,97542.56
2023-03-07T04:31:14.324Z,97536.22
2023-03-07T04:33:42.102Z,97539.06
2023-03-07T04:36:09.890Z,97544.75
2023-03-07T04:38:39.042Z,97542.09
2023-03-07T04:41:07.188Z,97537.31
2023-03-07T04:43:34.848Z,97538.34
2023-03-07T04:46:04.043Z,97526.91
2023-03-07T04:48:31.638Z,97527.88
2023-03-07T04:50:59.777Z,97528.53
2023-03-07T04:53:27.564Z,97525.44
2023-03-07T04:55:58.507Z,97520.78
2023-03-07T04:58:26.247Z,97523.03
2023-03-07T05:00:53.835Z,97520.25
2023-03-07T05:03:23.655Z,97519.56
2023-03-07T05:05:51.473Z,97514.97
2023-03-07T05:08:19.185Z,97528.91
2023-03-07T05:10:46.945Z,97519.50
2023-03-07T05:13:14.568Z,97526.78
2023-03-07T05:15:42.179Z,97515.41
2023-03-07T05:18:09.768Z,97505.28
2023-03-07T05:20:38.739Z,97510.19
2023-03-07T05:23:06.287Z,97496.50
2023-03-07T05:25:33.849Z,97511.94
2023-03-07T05:28:01.469Z,97504.81
2023-03-07T05:30:29.095Z,97498.94
2023-03-07T05:32:56.748Z,97505.78
2023-03-07T05:35:25.304Z,97510.53
2023-03-07T05:37:54.197Z,97514.06
2023-03-07T05:40:21.890Z,97509.03
2023-03-07T05:42:49.502Z,97505.59
2023-03-07T05:45:17.108Z,97506.75
2023-03-07T05:47:44.673Z,97507.16
2023-03-07T05:50:13.163Z,97498.56
2023-03-07T05:52:40.963Z,97498.81
2023-03-07T05:55:10.572Z,97502.19
2023-03-07T05:57:38.282Z,97507.47
2023-03-07T06:00:08.197Z,97506.31
2023-03-07T06:02:35.915Z,97504.03
2023-03-07T06:05:03.597Z,97493.66
2023-03-07T06:07:31.138Z,97498.50
2023-03-07T06:09:58.669Z,97501.84
2023-03-07T06:12:27.629Z,97489.44
2023-03-07T06:14:55.151Z,97493.50
2023-03-07T06:17:22.791Z,97502.19
2023-03-07T06:19:50.406Z,97497.97
2023-03-07T06:22:18.017Z,97491.25
2023-03-07T06:24:46.083Z,97502.13
2023-03-07T06:27:13.700Z,97500.94
2023-03-07T06:29:42.718Z,97495.06
2023-03-07T06:32:10.379Z,97514.19
2023-03-07T06:34:38.113Z,97502.00
2023-03-07T06:37:05.815Z,97497.72
2023-03-07T06:39:33.379Z,97511.22
2023-03-07T06:42:00.941Z,97501.66
2023-03-07T06:44:28.517Z,97500.88
2023-03-07T06:46:57.503Z,97514.38
2023-03-07T06:49:25.171Z,97492.81
2023-03-07T06:51:52.813Z,97510.19
2023-03-07T06:54:20.450Z,97515.75
2023-03-07T06:56:48.245Z,97497.97
2023-03-07T06:59:15.950Z,97512.50
2023-03-07T07:01:43.574Z,97505.72
2023-03-07T07:04:12.566Z,97514.91
2023-03-07T07:06:40.128Z,97496.63
2023-03-07T07:09:07.719Z,97506.25
2023-03-07T07:11:35.459Z,97502.50
2023-03-07T07:14:03.292Z,97495.78
2023-03-07T07:16:33.608Z,97487.25
2023-03-07T07:19:01.212Z,97506.06
2023-03-07T07:21:30.169Z,97504.84
2023-03-07T07:23:57.982Z,97499.69
2023-03-07T07:26:26.436Z,97496.19
2023-03-07T07:28:54.276Z,97503.22
2023-03-07T07:31:22.789Z,97499.50
2023-03-07T07:33:50.405Z,97500.59
2023-03-07T07:36:17.999Z,97493.25
2023-03-07T07:38:46.906Z,97490.00
2023-03-07T07:41:14.489Z,97494.63
2023-03-07T07:43:42.658Z,97482.91
2023-03-07T07:46:10.239Z,97486.44
2023-03-07T07:48:37.840Z,97490.88
2023-03-07T07:51:06.038Z,97479.06
2023-03-07T07:53:33.620Z,97480.38
2023-03-07T07:56:02.510Z,97480.88
2023-03-07T07:58:30.039Z,97474.06
2023-03-07T08:00:57.644Z,97477.16
2023-03-07T08:03:25.443Z,97469.94
2023-03-07T08:05:53.066Z,97474.47
2023-03-07T08:08:20.932Z,97471.22
2023-03-07T08:10:48.681Z,97466.22
2023-03-07T08:13:18.447Z,97474.56
2023-03-07T08:15:46.047Z,97476.44
2023-03-07T08:18:13.806Z,97466.59
2023-03-07T08:20:42.133Z,97475.41
2023-03-07T08:23:09.919Z,97465.81
2023-03-07T08:25:37.541Z,97472.22
2023-03-07T08:28:05.720Z,97472.06
2023-03-07T08:30:37.071Z,97453.19
2023-03-07T08:33:04.687Z,97468.13
2023-03-07T08:35:32.993Z,97448.66
2023-03-07T08:38:01.001Z,97472.06
2023-03-07T08:40:29.227Z,97479.66
2023-03-07T08:42:56.766Z,97485.50
2023-03-07T08:45:24.840Z,97462.53
2023-03-07T08:47:54.621Z,97456.56
2023-03-07T08:50:22.305Z,97473.97
2023-03-07T08:52:49.994Z,97477.13
2023-03-07T08:55:17.847Z,97471.00
2023-03-07T08:57:47.473Z,97471.84
2023-03-07T09:00:17.890Z,97450.53
2023-03-07T09:02:45.659Z,97454.22
2023-03-07T09:05:14.612Z,97470.97
2023-03-07T09:07:43.038Z,97457.75
2023-03-07T09:10:12.493Z,97457.75
2023-03-07T09:12:40.097Z,97467.91
2023-03-07T09:15:08.943Z,97440.81
2023-03-07T09:17:36.726Z,97451.56
2023-03-07T09:20:04.761Z,97439.09
2023-03-07T09:22:33.830Z,97457.44
2023-03-07T09:25:01.392Z,97456.75
2023-03-07T09:27:29.032Z,97455.88
2023-03-07T09:29:56.618Z,97420.22
2023-03-07T09:32:24.191Z,97429.94
2023-03-07T09:34:53.163Z,97448.38
2023-03-07T09:37:20.791Z,97444.34
2023-03-07T09:39:51.296Z,97433.03
2023-03-07T09:42:23.945Z,97418.00
2023-03-07T09:45:08.667Z,97442.91
2023-03-07T09:47:57.342Z,97407.63
2023-03-07T09:50:30.562Z,97428.72
2023-03-07T09:53:02.546Z,97449.84
2023-03-07T09:55:32.311Z,97433.63
2023-03-07T09:58:01.313Z,97439.88
2023-03-07T10:00:31.927Z,97436.84
2023-03-07T10:03:08.396Z,97444.34
2023-03-07T10:05:38.955Z,97419.69
2023-03-07T10:08:06.917Z,97419.34
2023-03-07T10:10:39.762Z,97410.66
2023-03-07T10:13:19.118Z,97430.66
2023-03-07T10:15:47.614Z,97416.47
2023-03-07T10:18:32.942Z,97383.38
2023-03-07T10:21:05.695Z,97422.38
2023-03-07T10:23:42.227Z,97420.16
2023-03-07T10:26:13.373Z,97407.97
2023-03-07T10:28:42.971Z,97403.22
2023-03-07T10:31:19.342Z,97407.75
2023-03-07T10:33:48.476Z,97392.41
2023-03-07T10:36:20.709Z,97389.31
2023-03-07T10:38:57.118Z,97393.25
2023-03-07T10:41:26.060Z,97390.53
2023-03-07T10:43:56.318Z,97385.09
2023-03-07T10:46:27.156Z,97381.28
2023-03-07T10:49:10.135Z,97392.03
2023-03-07T10:51:46.009Z,97385.84
2023-03-07T10:54:16.473Z,97387.91
2023-03-07T10:57:03.900Z,97377.78
2023-03-07T10:59:31.597Z,97355.66
2023-03-07T11:02:00.888Z,97377.56
2023-03-07T11:04:30.116Z,97354.91
2023-03-07T11:06:58.567Z,97353.59
2023-03-07T11:09:28.787Z,97355.03
2023-03-07T11:11:59.386Z,97369.63
2023-03-07T11:14:28.381Z,97375.41
2023-03-07T11:16:57.461Z,97371.00
2023-03-07T11:19:29.315Z,97371.13
2023-03-07T11:21:58.584Z,97367.06
2023-03-07T11:24:27.295Z,97368.19
2023-03-07T11:26:55.707Z,97359.53
2023-03-07T11:29:26.029Z,97361.94
2023-03-07T11:31:59.381Z,97366.41
2023-03-07T11:34:37.398Z,97334.75
2023-03-07T11:37:30.558Z,97357.69
2023-03-07T11:40:14.214Z,97349.34
2023-03-07T11:42:46.118Z,97339.06
2023-03-07T11:45:27.484Z,97358.16
2023-03-07T11:48:04.566Z,97352.63
2023-03-07T11:50:33.525Z,97352.97
2023-03-07T11:53:22.538Z,97322.44
2023-03-07T11:55:57.968Z,97320.22
2023-03-07T11:58:46.292Z,97320.50
2023-03-07T12:01:22.277Z,97341.31
2023-03-07T12:04:02.300Z,97340.81
2023-03-07T12:06:36.227Z,97316.31
2023-03-07T12:09:11.332Z,97345.44
2023-03-07T12:11:50.913Z,97335.09
2023-03-07T12:14:23.630Z,97330.00
2023-03-07T12:16:59.685Z,97308.88
2023-03-07T12:19:44.416Z,97305.47
2023-03-07T12:22:24.931Z,97321.47
2023-03-07T12:25:14.773Z,97322.66
2023-03-07T12:27:45.058Z,97311.75
2023-03-07T12:30:17.710Z,97315.75
2023-03-07T12:32:47.054Z,97302.53
2023-03-07T12:35:22.398Z,97306.41
2023-03-07T12:37:54.016Z,97316.16
2023-03-07T12:40:22.499Z,97275.09
2023-03-07T12:42:55.833Z,97291.28
2023-03-07T12:45:26.831Z,97306.69
2023-03-07T12:48:01.826Z,97293.66
2023-03-07T12:50:33.071Z,97297.50
2023-03-07T12:53:04.442Z,97282.44
2023-03-07T12:55:33.892Z,97300.72
2023-03-07T12:58:07.427Z,97293.69
2023-03-07T13:00:41.128Z,97298.28
2023-03-07T13:03:17.564Z,97300.16
2023-03-07T13:05:45.313Z,97294.72
2023-03-07T13:08:20.154Z,97298.47
2023-03-07T13:10:47.903Z,97300.16
2023-03-07T13:13:48.801Z,97300.16
2023-03-07T13:16:41.317Z,97296.78
2023-03-07T13:19:53.929Z,97289.47
2023-03-07T13:22:58.960Z,97309.13
2023-03-07T13:25:44.085Z,97295.38
2023-03-07T13:28:42.658Z,97298.38
2023-03-07T13:31:29.025Z,97281.59
2023-03-07T13:33:56.615Z,97280.47
2023-03-07T13:36:37.767Z,97312.19
2023-03-07T13:39:38.958Z,97284.84
2023-03-07T13:42:46.558Z,97272.59
2023-03-07T13:45:47.149Z,97275.78
2023-03-07T13:49:02.057Z,97299.22
2023-03-07T13:51:31.968Z,97277.22
2023-03-07T13:54:02.868Z,97274.97
2023-03-07T13:56:31.915Z,97265.50
2023-03-07T13:59:01.401Z,97297.06
2023-03-07T14:01:32.720Z,97297.34
2023-03-07T14:04:06.004Z,97301.56
2023-03-07T14:06:38.153Z,97299.38
2023-03-07T14:09:07.083Z,97303.97
2023-03-07T14:11:41.836Z,97304.25
2023-03-07T14:14:30.647Z,97308.81
2023-03-07T14:17:10.060Z,97312.88
2023-03-07T14:19:49.700Z,97319.63
2023-03-07T14:22:23.449Z,97312.44
2023-03-07T14:25:09.226Z,97315.16
2023-03-07T14:27:51.622Z,97311.50
2023-03-07T14:30:20.004Z,97311.47
2023-03-07T14:32:48.017Z,97310.22
2023-03-07T14:35:21.051Z,97314.47
2023-03-07T14:37:48.672Z,97320.91
2023-03-07T14:40:28.996Z,97320.66
2023-03-07T14:43:05.258Z,97309.91
2023-03-07T14:45:38.820Z,97316.44
2023-03-07T14:48:39.597Z,97305.50
2023-03-07T14:51:13.804Z,97303.53
2023-03-07T14:53:42.836Z,97298.53
2023-03-07T14:56:11.217Z,97293.56
2023-03-07T14:58:48.087Z,97291.13
2023-03-07T15:01:19.455Z,97279.28
2023-03-07T15:03:48.526Z,97299.84
2023-03-07T15:06:19.547Z,97286.75
2023-03-07T15:08:49.104Z,97290.84
2023-03-07T15:11:25.200Z,97293.56
2023-03-07T15:13:54.370Z,97283.00
2023-03-07T15:16:27.144Z,97273.25
2023-03-07T15:18:57.004Z,97286.94
2023-03-07T15:21:27.239Z,97280.66
2023-03-07T15:23:56.444Z,97283.00
2023-03-07T15:26:24.706Z,97294.53
2023-03-07T15:28:59.438Z,97298.19
2023-03-07T15:31:30.714Z,97291.34
2023-03-07T15:34:11.931Z,97288.06
2023-03-07T15:36:40.907Z,97283.66
2023-03-07T15:39:34.273Z,97277.38
2023-03-07T15:42:04.225Z,97280.09
2023-03-07T15:44:32.962Z,97268.38
2023-03-07T15:47:03.865Z,97271.59
2023-03-07T15:49:37.548Z,97270.38
2023-03-07T15:52:07.228Z,97261.84
2023-03-07T15:54:39.559Z,97270.06
2023-03-07T15:57:09.416Z,97264.19
2023-03-07T15:59:38.959Z,97264.53
2023-03-07T16:02:41.986Z,97271.91
2023-03-07T16:05:32.862Z,97271.97
2023-03-07T16:08:01.828Z,97268.50
2023-03-07T16:10:31.667Z,97256.84
2023-03-07T16:13:00.630Z,97268.81
2023-03-07T16:15:28.261Z,97267.44
2023-03-07T16:17:56.733Z,97269.31
2023-03-07T16:20:25.886Z,97273.88
2023-03-07T16:22:54.086Z,97267.97
2023-03-07T16:25:24.264Z,97266.66
2023-03-07T16:27:54.078Z,97263.84
2023-03-07T16:30:24.465Z,97260.00
2023-03-07T16:32:52.112Z,97272.22
2023-03-07T16:35:21.459Z,97288.28
2023-03-07T16:37:48.989Z,97277.28
2023-03-07T16:40:17.076Z,97285.31
2023-03-07T16:42:48.210Z,97241.53
2023-03-07T16:45:19.861Z,97271.22
2023-03-07T16:47:47.797Z,97275.69
2023-03-07T16:50:17.184Z,97284.81
2023-03-07T16:52:44.995Z,97275.38
2023-03-07T16:55:14.062Z,97293.06
2023-03-07T16:57:42.630Z,97293.25
2023-03-07T17:00:16.834Z,97297.53
2023-03-07T17:02:44.754Z,97302.00
2023-03-07T17:05:20.487Z,97285.22
2023-03-07T17:07:48.283Z,97308.50
2023-03-07T17:10:16.483Z,97309.44
2023-03-07T17:12:44.559Z,97298.63
2023-03-07T17:15:16.373Z,97319.13
2023-03-07T17:17:44.184Z,97323.44
2023-03-07T17:20:14.559Z,97323.19
2023-03-07T17:22:42.138Z,97330.59
2023-03-07T17:25:09.914Z,97330.59
2023-03-07T17:27:41.094Z,97329.75
2023-03-07T17:30:10.673Z,97329.50
2023-03-07T17:32:39.590Z,97327.16
2023-03-07T17:35:09.713Z,97315.91
2023-03-07T17:37:37.410Z,97331.78
2023-03-07T17:40:10.307Z,97335.41
2023-03-07T17:42:38.721Z,97325.03
2023-03-07T17:45:07.744Z,97319.56
2023-03-07T17:47:35.351Z,97336.00
2023-03-07T17:50:06.152Z,97339.63
2023-03-07T17:52:34.373Z,97344.00
2023-03-07T17:55:02.056Z,97346.88
2023-03-07T17:57:29.777Z,97353.28
2023-03-07T17:59:57.507Z,97330.59
2023-03-07T18:02:25.873Z,97331.78
2023-03-07T18:04:53.600Z,97353.22
2023-03-07T18:07:22.483Z,97354.81
2023-03-07T18:09:58.780Z,97352.88
2023-03-07T18:12:34.703Z,97356.16
2023-03-07T18:15:02.310Z,97358.81
2023-03-07T18:17:41.810Z,97352.63
2023-03-07T18:20:14.847Z,97362.31
2023-03-07T18:22:44.044Z,97364.00
2023-03-07T18:25:13.845Z,97363.00
2023-03-07T18:27:41.494Z,97367.88
2023-03-07T18:30:11.787Z,97367.34
2023-03-07T18:32:39.614Z,97366.25
2023-03-07T18:35:08.128Z,97355.13
2023-03-07T18:37:35.742Z,97366.19
2023-03-07T18:40:05.258Z,97354.78
2023-03-07T18:42:33.830Z,97355.06
2023-03-07T18:45:01.411Z,97357.31
2023-03-07T18:47:29.020Z,97358.16
2023-03-07T18:49:57.623Z,97358.94
2023-03-07T18:52:25.250Z,97353.63
2023-03-07T18:54:52.854Z,97361.78
2023-03-07T18:57:21.779Z,97371.50
2023-03-07T18:59:50.191Z,97357.47
2023-03-07T19:02:17.895Z,97366.94
2023-03-07T19:04:45.470Z,97365.50
2023-03-07T19:07:13.093Z,97365.75
2023-03-07T19:09:42.136Z,97366.06
2023-03-07T19:12:11.471Z,97359.50
2023-03-07T19:14:40.689Z,97363.13
2023-03-07T19:17:08.208Z,97363.53
2023-03-07T19:19:36.337Z,97377.03
2023-03-07T19:22:04.112Z,97379.91
2023-03-07T19:24:31.719Z,97379.91
2023-03-07T19:26:59.390Z,97376.50
2023-03-07T19:29:27.052Z,97386.72
2023-03-07T19:31:56.445Z,97386.59
2023-03-07T19:34:24.176Z,97387.50
2023-03-07T19:36:51.762Z,97386.50
2023-03-07T19:39:21.024Z,97389.81
2023-03-07T19:41:48.910Z,97380.84
2023-03-07T19:44:16.814Z,97393.44
2023-03-07T19:46:46.277Z,97388.28
2023-03-07T19:49:15.362Z,97392.75
2023-03-07T19:51:43.012Z,97393.59
2023-03-07T19:54:11.316Z,97390.97
2023-03-07T19:56:39.215Z,97405.41
2023-03-07T19:59:08.246Z,97406.75
2023-03-07T20:01:35.923Z,97403.22
2023-03-07T20:04:04.791Z,97397.91
2023-03-07T20:06:33.756Z,97403.50
2023-03-07T20:09:01.559Z,97401.34
2023-03-07T20:11:30.445Z,97411.34
2023-03-07T20:13:59.253Z,97403.66
2023-03-07T20:16:29.233Z,97392.22
2023-03-07T20:18:58.202Z,97406.25
2023-03-07T20:21:28.359Z,97409.56
2023-03-07T20:23:59.720Z,97411.25
2023-03-07T20:26:28.857Z,97415.72
2023-03-07T20:28:57.683Z,97420.63
2023-03-07T20:31:25.410Z,97424.00
2023-03-07T20:33:53.037Z,97416.16
2023-03-07T20:36:22.677Z,97413.88
2023-03-07T20:38:51.763Z,97415.31
2023-03-07T20:41:22.333Z,97430.06
2023-03-07T20:43:50.623Z,97426.69
2023-03-07T20:46:19.913Z,97426.41
2023-03-07T20:48:48.501Z,97442.16
2023-03-07T20:51:19.596Z,97429.41
2023-03-07T20:53:47.399Z,97430.78
2023-03-07T20:56:15.152Z,97439.31
2023-03-07T20:58:44.259Z,97438.47
2023-03-07T21:01:12.676Z,97441.63
2023-03-07T21:03:40.300Z,97453.59
2023-03-07T21:06:08.082Z,97457.44
2023-03-07T21:08:37.208Z,97444.78
2023-03-07T21:11:06.358Z,97451.22
2023-03-07T21:13:35.899Z,97449.00
2023-03-07T21:16:07.225Z,97457.16
2023-03-07T21:18:35.030Z,97451.31
2023-03-07T21:21:02.955Z,97457.00
2023-03-07T21:23:30.735Z,97453.16
2023-03-07T21:26:01.450Z,97445.31
2023-03-07T21:28:29.011Z,97445.16
2023-03-07T21:31:00.717Z,97441.22
2023-03-07T21:33:29.924Z,97452.75
2023-03-07T21:35:57.646Z,97459.69
2023-03-07T21:38:25.424Z,97461.44
2023-03-07T21:40:54.430Z,97468.22
2023-03-07T21:43:22.702Z,97476.97
2023-03-07T21:45:50.472Z,97484.81
2023-03-07T21:48:19.195Z,97496.28
2023-03-07T21:50:49.777Z,97509.34
2023-03-07T21:53:17.432Z,97509.56
2023-03-07T21:55:51.016Z,97514.72
2023-03-07T21:58:18.749Z,97524.88
2023-03-07T22:00:46.402Z,97519.81
2023-03-07T22:03:14.121Z,97514.72
2023-03-07T22:05:41.981Z,97519.03
2023-03-07T22:08:11.249Z,97523.63
2023-03-07T22:10:38.925Z,97533.09
2023-03-07T22:13:07.021Z,97528.41
2023-03-07T22:15:34.822Z,97521.72
2023-03-07T22:18:02.541Z,97533.72
2023-03-07T22:20:30.198Z,97530.69
2023-03-07T22:22:57.797Z,97526.69
2023-03-07T22:25:26.825Z,97529.91
2023-03-07T22:27:54.410Z,97538.66
2023-03-07T22:30:22.044Z,97535.50
2023-03-07T22:32:49.646Z,97537.81
2023-03-07T22:35:17.414Z,97541.94
2023-03-07T22:37:45.004Z,97539.41
2023-03-07T22:40:13.842Z,97549.22
2023-03-07T22:42:42.779Z,97549.09
2023-03-07T22:45:11.174Z,97544.84
2023-03-07T22:47:38.818Z,97555.44
2023-03-07T22:50:07.437Z,97554.59
2023-03-07T22:52:35.065Z,97562.91
2023-03-07T22:55:02.713Z,97566.97
2023-03-07T22:57:31.493Z,97562.22
2023-03-07T23:00:00.432Z,97565.56
2023-03-07T23:02:28.012Z,97573.50
2023-03-07T23:04:55.502Z,97568.28
2023-03-07T23:07:23.156Z,97571.38
2023-03-07T23:09:50.858Z,97583.19
2023-03-07T23:12:18.408Z,97582.84
2023-03-07T23:14:46.035Z,97584.69
2023-03-07T23:17:15.176Z,97585.66
2023-03-07T23:19:42.758Z,97582.91
2023-03-07T23:22:10.407Z,97580.25
2023-03-07T23:24:38.047Z,97577.72
2023-03-07T23:27:06.208Z,97574.31
2023-03-07T23:29:34.326Z,97580.44
2023-03-07T23:32:03.762Z,97578.44
2023-03-07T23:34:33.575Z,97575.22
2023-03-07T23:37:02.009Z,97578.88
2023-03-07T23:39:30.228Z,97587.53
2023-03-07T23:41:58.541Z,97582.41
2023-03-07T23:44:26.731Z,97586.44
2023-03-07T23:46:54.980Z,97580.25
2023-03-07T23:49:23.073Z,97584.88
2023-03-07T23:51:51.987Z,97582.06
2023-03-07T23:54:20.256Z,97582.59
2023-03-07T23:56:48.593Z,97584.34
2023-03-07T23:59:16.749Z,97587.66
